createdAt,value
2018-12-25T00:00:40.702Z,8.10
2018-12-25T00:01:40.706Z,11.00
2018-12-25T00:02:40.679Z,6.70
2018-12-25T00:03:40.664Z,9.40
2018-12-25T00:04:40.658Z,9.30
2018-12-25T00:05:40.660Z,7.20
2018-12-25T00:06:40.637Z,10.30
2018-12-25T00:07:40.629Z,10.50
2018-12-25T00:08:40.623Z,9.40
2018-12-25T00:09:40.601Z,9.80
2018-12-25T00:10:40.594Z,7.20
2018-12-25T00:11:40.580Z,6.40
2018-12-25T00:12:40.588Z,8.80
2018-12-25T00:13:40.560Z,9.60
2018-12-25T00:14:40.612Z,7.60
2018-12-25T00:15:40.559Z,7.30
2018-12-25T00:16:40.550Z,8.10
2018-12-25T00:17:40.522Z,8.00
2018-12-25T00:18:40.539Z,7.40
2018-12-25T00:19:40.532Z,7.40
2018-12-25T00:20:40.523Z,8.20
2018-12-25T00:21:40.532Z,9.10
2018-12-25T00:22:40.485Z,8.90
2018-12-25T00:23:40.477Z,9.50
2018-12-25T00:24:40.485Z,7.40
2018-12-25T00:25:40.460Z,7.80
2018-12-25T00:26:40.422Z,6.80
2018-12-25T00:27:40.421Z,8.30
2018-12-25T00:28:40.430Z,7.60
2018-12-25T00:29:40.412Z,11.20
2018-12-25T00:30:40.461Z,7.50
2018-12-25T00:31:40.370Z,7.60
2018-12-25T00:32:40.362Z,5.50
2018-12-25T00:33:40.391Z,11.10
2018-12-25T00:34:40.413Z,6.80
2018-12-25T00:35:40.326Z,10.70
2018-12-25T00:36:40.327Z,6.50
2018-12-25T00:37:40.306Z,6.50
2018-12-25T00:38:40.312Z,6.60
2018-12-25T00:39:40.332Z,8.30
2018-12-25T00:40:40.288Z,9.00
2018-12-25T00:41:40.338Z,6.30
2018-12-25T00:42:40.275Z,8.90
2018-12-25T00:43:40.250Z,8.50
2018-12-25T00:44:40.363Z,8.30
2018-12-25T00:45:40.260Z,7.00
2018-12-25T00:46:40.229Z,7.20
2018-12-25T00:47:40.241Z,7.40
2018-12-25T00:48:40.187Z,7.10
2018-12-25T00:49:40.340Z,7.40
2018-12-25T00:50:40.186Z,8.20
2018-12-25T00:51:40.198Z,8.20
2018-12-25T00:52:40.181Z,8.00
2018-12-25T00:53:40.167Z,8.30
2018-12-25T00:54:40.140Z,8.80
2018-12-25T00:55:40.185Z,7.50
2018-12-25T00:56:40.216Z,9.30
2018-12-25T00:57:40.264Z,8.10
2018-12-25T00:58:40.085Z,6.50
2018-12-25T00:59:40.118Z,7.60
2018-12-25T01:00:40.085Z,9.10
2018-12-25T01:01:40.049Z,8.80
2018-12-25T01:02:40.041Z,10.50
2018-12-25T01:03:40.028Z,8.60
2018-12-25T01:04:40.020Z,10.20
2018-12-25T01:05:40.008Z,9.60
2018-12-25T01:06:39.998Z,9.30
2018-12-25T01:07:39.986Z,9.20
2018-12-25T01:08:39.977Z,8.70
2018-12-25T01:09:39.966Z,7.30
2018-12-25T01:10:39.958Z,8.60
2018-12-25T01:11:39.946Z,7.70
2018-12-25T01:12:39.937Z,11.00
2018-12-25T01:13:39.922Z,8.50
2018-12-25T01:14:39.915Z,9.30
2018-12-25T01:15:39.905Z,9.30
2018-12-25T01:16:39.892Z,9.60
2018-12-25T01:17:39.884Z,7.80
2018-12-25T01:18:39.874Z,8.10
2018-12-25T01:19:39.865Z,9.20
2018-12-25T01:20:39.852Z,10.60
2018-12-25T01:21:39.837Z,9.70
2018-12-25T01:22:39.831Z,9.50
2018-12-25T01:23:39.818Z,12.40
2018-12-25T01:24:39.808Z,11.40
2018-12-25T01:25:39.797Z,8.50
2018-12-25T01:26:39.787Z,11.40
2018-12-25T01:27:39.778Z,8.40
2018-12-25T01:28:39.763Z,10.10
2018-12-25T01:29:39.755Z,8.40
2018-12-25T01:30:39.745Z,8.90
2018-12-25T01:31:39.732Z,8.10
2018-12-25T01:32:39.723Z,8.20
2018-12-25T01:33:39.712Z,6.70
2018-12-25T01:34:39.700Z,11.80
2018-12-25T01:35:39.693Z,8.80
2018-12-25T01:36:39.682Z,10.50
2018-12-25T01:37:39.671Z,12.70
2018-12-25T01:38:39.661Z,9.00
2018-12-25T01:39:39.651Z,9.20
2018-12-25T01:40:39.639Z,8.30
2018-12-25T01:41:39.634Z,9.60
2018-12-25T01:42:39.619Z,8.10
2018-12-25T01:43:39.609Z,9.30
2018-12-25T01:44:39.597Z,9.90
2018-12-25T01:45:39.590Z,8.30
2018-12-25T01:46:39.576Z,9.60
2018-12-25T01:47:39.569Z,12.30
2018-12-25T01:48:39.554Z,9.00
2018-12-25T01:49:39.543Z,10.70
2018-12-25T01:50:39.534Z,8.90
2018-12-25T01:51:39.521Z,8.40
2018-12-25T01:52:39.511Z,10.60
2018-12-25T01:53:39.499Z,10.20
2018-12-25T01:54:39.491Z,11.00
2018-12-25T01:55:39.481Z,9.70
2018-12-25T01:56:39.468Z,12.70
2018-12-25T01:57:39.458Z,10.90
2018-12-25T01:58:39.447Z,10.70
2018-12-25T01:59:39.440Z,12.90
2018-12-25T02:00:39.428Z,9.90
2018-12-25T02:01:39.414Z,12.70
2018-12-25T02:02:39.404Z,11.70
2018-12-25T02:03:39.401Z,11.50
2018-12-25T02:04:39.384Z,12.40
2018-12-25T02:05:39.373Z,14.40
2018-12-25T02:06:39.364Z,10.60
2018-12-25T02:07:39.352Z,12.70
2018-12-25T02:08:39.344Z,12.00
2018-12-25T02:09:39.330Z,11.80
2018-12-25T02:10:39.325Z,11.10
2018-12-25T02:11:39.309Z,14.20
2018-12-25T02:12:39.301Z,12.00
2018-12-25T02:13:39.288Z,12.20
2018-12-25T02:14:39.278Z,11.90
2018-12-25T02:15:39.267Z,11.80
2018-12-25T02:16:39.260Z,9.60
2018-12-25T02:17:39.248Z,13.60
2018-12-25T02:18:39.235Z,11.10
2018-12-25T02:19:40.320Z,12.70
2018-12-25T02:20:39.215Z,10.40
2018-12-25T02:21:39.205Z,11.60
2018-12-25T02:22:39.244Z,10.40
2018-12-25T02:23:39.186Z,13.80
2018-12-25T02:24:39.171Z,11.80
2018-12-25T02:25:39.162Z,10.50
2018-12-25T02:26:39.153Z,10.70
2018-12-25T02:27:39.141Z,10.70
2018-12-25T02:28:39.128Z,10.50
2018-12-25T02:29:39.119Z,11.80
2018-12-25T02:30:39.120Z,9.90
2018-12-25T02:31:39.099Z,7.50
2018-12-25T02:32:39.092Z,11.20
2018-12-25T02:33:39.085Z,10.20
2018-12-25T02:34:39.066Z,8.30
2018-12-25T02:35:39.070Z,9.80
2018-12-25T02:36:39.048Z,11.90
2018-12-25T02:37:39.038Z,10.90
2018-12-25T02:38:39.024Z,11.10
2018-12-25T02:39:39.013Z,9.90
2018-12-25T02:40:39.006Z,12.30
2018-12-25T02:41:38.994Z,10.60
2018-12-25T02:42:38.980Z,8.80
2018-12-25T02:43:38.971Z,11.10
2018-12-25T02:44:38.962Z,10.90
2018-12-25T02:45:38.951Z,9.50
2018-12-25T02:46:38.940Z,10.40
2018-12-25T02:47:38.928Z,9.20
2018-12-25T02:48:38.920Z,9.10
2018-12-25T02:49:38.908Z,11.60
2018-12-25T02:50:38.896Z,9.90
2018-12-25T02:51:38.886Z,10.00
2018-12-25T02:52:38.876Z,11.80
2018-12-25T02:53:38.869Z,11.20
2018-12-25T02:54:38.855Z,7.70
2018-12-25T02:55:38.844Z,9.60
2018-12-25T02:56:38.835Z,8.70
2018-12-25T02:57:38.822Z,10.00
2018-12-25T02:58:38.819Z,8.90
2018-12-25T02:59:38.806Z,10.30
2018-12-25T03:00:38.792Z,10.90
2018-12-25T03:01:38.787Z,9.30
2018-12-25T03:02:38.769Z,11.20
2018-12-25T03:03:38.760Z,10.40
2018-12-25T03:04:38.748Z,8.80
2018-12-25T03:05:38.738Z,10.90
2018-12-25T03:06:38.741Z,6.70
2018-12-25T03:07:38.718Z,7.80
2018-12-25T03:08:38.707Z,7.60
2018-12-25T03:09:38.698Z,8.00
2018-12-25T03:10:38.689Z,8.50
2018-12-25T03:11:38.678Z,10.30
2018-12-25T03:12:38.668Z,6.80
2018-12-25T03:13:38.656Z,6.80
2018-12-25T03:14:38.643Z,8.20
2018-12-25T03:15:38.635Z,7.70
2018-12-25T03:16:38.626Z,7.10
2018-12-25T03:17:38.613Z,6.70
2018-12-25T03:18:38.601Z,7.00
2018-12-25T03:19:38.593Z,9.70
2018-12-25T03:20:38.589Z,8.10
2018-12-25T03:21:38.568Z,7.90
2018-12-25T03:22:38.556Z,10.10
2018-12-25T03:23:38.547Z,6.90
2018-12-25T03:24:38.538Z,11.50
2018-12-25T03:25:38.525Z,11.10
2018-12-25T03:26:38.520Z,9.10
2018-12-25T03:27:38.504Z,10.30
2018-12-25T03:28:38.493Z,7.10
2018-12-25T03:29:38.485Z,9.40
2018-12-25T03:30:38.476Z,9.90
2018-12-25T03:31:38.464Z,8.10
2018-12-25T03:32:38.452Z,8.00
2018-12-25T03:33:38.442Z,7.80
2018-12-25T03:34:38.430Z,8.10
2018-12-25T03:35:38.419Z,9.50
2018-12-25T03:36:38.410Z,8.30
2018-12-25T03:37:38.399Z,9.40
2018-12-25T03:38:38.387Z,11.30
2018-12-25T03:39:38.379Z,8.90
2018-12-25T03:40:38.369Z,10.30
2018-12-25T03:41:38.357Z,12.80
2018-12-25T03:42:38.344Z,8.70
2018-12-25T03:43:38.334Z,9.60
2018-12-25T03:44:38.324Z,10.10
2018-12-25T03:45:38.314Z,7.40
2018-12-25T03:46:38.301Z,6.70
2018-12-25T03:47:38.295Z,7.50
2018-12-25T03:48:38.288Z,9.70
2018-12-25T03:49:38.274Z,8.00
2018-12-25T03:50:38.266Z,7.70
2018-12-25T03:51:38.253Z,10.10
2018-12-25T03:52:38.238Z,9.60
2018-12-25T03:53:38.232Z,7.40
2018-12-25T03:54:38.223Z,6.20
2018-12-25T03:55:38.293Z,7.00
2018-12-25T03:56:38.198Z,8.20
2018-12-25T03:57:38.195Z,7.00
2018-12-25T03:58:38.176Z,6.90
2018-12-25T03:59:38.170Z,6.20
2018-12-25T04:00:38.159Z,8.00
2018-12-25T04:01:38.143Z,9.50
2018-12-25T04:02:38.133Z,7.10
2018-12-25T04:03:38.123Z,7.10
2018-12-25T04:04:38.114Z,8.00
2018-12-25T04:05:38.103Z,7.40
2018-12-25T04:06:38.098Z,7.40
2018-12-25T04:07:38.084Z,10.20
2018-12-25T04:08:38.178Z,8.00
2018-12-25T04:09:38.060Z,6.90
2018-12-25T04:10:38.051Z,7.00
2018-12-25T04:11:38.039Z,6.40
2018-12-25T04:12:38.028Z,7.30
2018-12-25T04:13:38.019Z,5.50
2018-12-25T04:14:38.012Z,4.70
2018-12-25T04:15:37.997Z,6.00
2018-12-25T04:16:37.988Z,10.80
2018-12-25T04:17:37.975Z,7.10
2018-12-25T04:18:37.965Z,10.00
2018-12-25T04:19:37.957Z,8.20
2018-12-25T04:20:37.945Z,7.10
2018-12-25T04:21:37.937Z,5.50
2018-12-25T04:22:37.926Z,7.50
2018-12-25T04:23:37.912Z,10.00
2018-12-25T04:24:37.901Z,8.20
2018-12-25T04:25:37.893Z,6.90
2018-12-25T04:26:37.882Z,4.80
2018-12-25T04:27:37.869Z,6.90
2018-12-25T04:28:37.859Z,8.00
2018-12-25T04:29:37.848Z,7.50
2018-12-25T04:30:37.839Z,5.90
2018-12-25T04:31:37.827Z,8.00
2018-12-25T04:32:37.818Z,7.80
2018-12-25T04:33:37.807Z,6.90
2018-12-25T04:34:37.796Z,7.00
2018-12-25T04:35:37.783Z,6.20
2018-12-25T04:36:37.778Z,7.20
2018-12-25T04:37:37.763Z,7.80
2018-12-25T04:38:37.755Z,6.20
2018-12-25T04:39:37.789Z,6.90
2018-12-25T04:40:37.732Z,7.60
2018-12-25T04:41:37.724Z,5.80
2018-12-25T04:42:37.709Z,7.10
2018-12-25T04:43:37.701Z,8.60
2018-12-25T04:44:37.692Z,9.90
2018-12-25T04:45:37.677Z,7.80
2018-12-25T04:46:37.671Z,7.60
2018-12-25T04:47:37.660Z,5.00
2018-12-25T04:48:37.647Z,5.40
2018-12-25T04:49:37.641Z,4.90
2018-12-25T04:50:37.626Z,6.50
2018-12-25T04:51:37.614Z,4.20
2018-12-25T04:52:37.604Z,5.70
2018-12-25T04:53:37.592Z,5.00
2018-12-25T04:54:37.582Z,5.50
2018-12-25T04:55:37.577Z,7.00
2018-12-25T04:56:37.564Z,5.10
2018-12-25T04:57:37.556Z,4.80
2018-12-25T04:58:37.540Z,4.40
2018-12-25T04:59:37.529Z,4.00
2018-12-25T05:00:37.519Z,4.70
2018-12-25T05:01:37.506Z,7.60
2018-12-25T05:02:37.498Z,5.30
2018-12-25T05:03:37.486Z,7.40
2018-12-25T05:04:37.475Z,4.10
2018-12-25T05:05:37.466Z,4.60
2018-12-25T05:06:37.458Z,5.30
2018-12-25T05:07:37.446Z,6.70
2018-12-25T05:08:37.438Z,4.80
2018-12-25T05:09:37.428Z,5.90
2018-12-25T05:10:37.416Z,4.30
2018-12-25T05:11:37.414Z,4.80
2018-12-25T05:12:37.393Z,5.30
2018-12-25T05:13:37.383Z,5.30
2018-12-25T05:14:37.372Z,4.30
2018-12-25T05:15:37.359Z,3.20
2018-12-25T05:16:37.349Z,4.90
2018-12-25T05:17:37.341Z,5.60
2018-12-25T05:18:37.327Z,3.40
2018-12-25T05:19:37.316Z,5.90
2018-12-25T05:20:38.036Z,3.40
2018-12-25T05:21:37.294Z,3.20
2018-12-25T05:22:37.287Z,3.90
2018-12-25T05:23:37.342Z,4.70
2018-12-25T05:24:37.264Z,5.10
2018-12-25T05:25:37.255Z,7.40
2018-12-25T05:26:37.243Z,3.40
2018-12-25T05:27:37.232Z,7.00
2018-12-25T05:28:37.223Z,5.30
2018-12-25T05:29:37.211Z,5.40
2018-12-25T05:30:37.199Z,3.20
2018-12-25T05:31:37.195Z,3.10
2018-12-25T05:32:37.179Z,6.40
2018-12-25T05:33:37.168Z,5.10
2018-12-25T05:34:37.157Z,4.20
2018-12-25T05:35:37.154Z,3.00
2018-12-25T05:36:37.139Z,3.60
2018-12-25T05:37:37.128Z,4.30
2018-12-25T05:38:37.115Z,4.80
2018-12-25T05:39:37.109Z,6.70
2018-12-25T05:40:37.097Z,8.10
2018-12-25T05:41:37.084Z,3.40
2018-12-25T05:42:37.073Z,6.90
2018-12-25T05:43:37.061Z,4.20
2018-12-25T05:44:37.050Z,6.30
2018-12-25T05:45:37.042Z,3.20
2018-12-25T05:46:37.030Z,4.10
2018-12-25T05:47:37.022Z,6.70
2018-12-25T05:48:37.011Z,3.10
2018-12-25T05:49:36.999Z,4.50
2018-12-25T05:50:36.987Z,6.00
2018-12-25T05:51:36.979Z,3.30
2018-12-25T05:52:36.967Z,5.20
2018-12-25T05:53:36.956Z,4.90
2018-12-25T05:54:36.948Z,4.20
2018-12-25T05:55:36.935Z,6.30
2018-12-25T05:56:36.924Z,3.50
2018-12-25T05:57:36.915Z,3.60
2018-12-25T05:58:36.906Z,3.60
2018-12-25T05:59:36.895Z,3.30
2018-12-25T06:00:36.979Z,2.20
2018-12-25T06:01:36.871Z,4.80
2018-12-25T06:02:36.861Z,3.30
2018-12-25T06:03:36.852Z,3.00
2018-12-25T06:04:36.840Z,3.10
2018-12-25T06:05:36.829Z,7.80
2018-12-25T06:06:36.819Z,3.20
2018-12-25T06:07:36.808Z,5.00
2018-12-25T06:08:36.798Z,5.80
2018-12-25T06:09:36.789Z,3.20
2018-12-25T06:10:36.775Z,1.90
2018-12-25T06:11:36.766Z,3.00
2018-12-25T06:12:36.756Z,2.00
2018-12-25T06:13:36.743Z,4.20
2018-12-25T06:14:36.734Z,3.60
2018-12-25T06:15:36.723Z,7.00
2018-12-25T06:16:36.712Z,3.10
2018-12-25T06:17:36.704Z,4.20
2018-12-25T06:18:36.691Z,1.80
2018-12-25T06:19:36.681Z,3.10
2018-12-25T06:20:36.670Z,3.20
2018-12-25T06:21:36.659Z,2.20
2018-12-25T06:22:36.650Z,3.80
2018-12-25T06:23:36.639Z,1.80
2018-12-25T06:24:36.628Z,3.30
2018-12-25T06:25:36.617Z,3.20
2018-12-25T06:26:36.606Z,4.40
2018-12-25T06:27:36.596Z,4.70
2018-12-25T06:28:36.588Z,3.40
2018-12-25T06:29:36.579Z,3.90
2018-12-25T06:30:36.566Z,3.20
2018-12-25T06:31:36.557Z,3.20
2018-12-25T06:32:36.544Z,4.10
2018-12-25T06:33:36.534Z,6.30
2018-12-25T06:34:36.522Z,3.90
2018-12-25T06:35:36.514Z,2.40
2018-12-25T06:36:36.504Z,2.70
2018-12-25T06:37:36.497Z,3.30
2018-12-25T06:38:36.484Z,4.20
2018-12-25T06:39:36.472Z,5.60
2018-12-25T06:40:36.461Z,2.60
2018-12-25T06:41:37.608Z,3.90
2018-12-25T06:42:36.446Z,3.60
2018-12-25T06:43:36.433Z,2.00
2018-12-25T06:44:36.417Z,3.00
2018-12-25T06:45:36.407Z,3.50
2018-12-25T06:46:36.403Z,6.90
2018-12-25T06:47:36.384Z,3.50
2018-12-25T06:48:36.373Z,2.50
2018-12-25T06:49:36.362Z,6.20
2018-12-25T06:50:36.358Z,4.60
2018-12-25T06:51:36.342Z,3.60
2018-12-25T06:52:36.335Z,2.90
2018-12-25T06:53:36.322Z,3.30
2018-12-25T06:54:36.313Z,3.20
2018-12-25T06:55:36.305Z,5.50
2018-12-25T06:56:36.293Z,2.60
2018-12-25T06:57:36.280Z,5.60
2018-12-25T06:58:36.267Z,1.90
2018-12-25T06:59:36.258Z,3.30
2018-12-25T07:00:36.245Z,3.50
2018-12-25T07:01:36.241Z,4.90
2018-12-25T07:02:36.226Z,4.00
2018-12-25T07:03:36.215Z,3.80
2018-12-25T07:04:36.207Z,3.60
2018-12-25T07:05:36.196Z,4.30
2018-12-25T07:06:36.183Z,3.20
2018-12-25T07:07:36.173Z,3.00
2018-12-25T07:08:36.162Z,4.10
2018-12-25T07:09:36.155Z,3.40
2018-12-25T07:10:36.143Z,2.90
2018-12-25T07:11:36.133Z,3.50
2018-12-25T07:12:36.123Z,4.20
2018-12-25T07:13:36.108Z,3.50
2018-12-25T07:14:36.099Z,2.20
2018-12-25T07:15:36.090Z,1.90
2018-12-25T07:16:36.077Z,3.10
2018-12-25T07:17:36.066Z,3.30
2018-12-25T07:18:36.055Z,4.40
2018-12-25T07:19:36.045Z,3.90
2018-12-25T07:20:36.034Z,3.80
2018-12-25T07:21:36.027Z,3.40
2018-12-25T07:22:36.013Z,3.60
2018-12-25T07:23:36.002Z,4.70
2018-12-25T07:24:35.991Z,3.60
2018-12-25T07:25:35.980Z,3.10
2018-12-25T07:26:35.970Z,3.50
2018-12-25T07:27:35.961Z,2.40
2018-12-25T07:28:35.949Z,3.20
2018-12-25T07:29:35.938Z,2.80
2018-12-25T07:30:35.927Z,2.70
2018-12-25T07:31:35.917Z,3.10
2018-12-25T07:32:35.909Z,3.10
2018-12-25T07:33:35.896Z,3.10
2018-12-25T07:34:35.885Z,2.70
2018-12-25T07:35:35.876Z,4.40
2018-12-25T07:36:35.865Z,4.50
2018-12-25T07:37:35.856Z,3.50
2018-12-25T07:38:35.842Z,4.50
2018-12-25T07:39:35.846Z,4.20
2018-12-25T07:40:35.822Z,3.40
2018-12-25T07:41:35.816Z,6.00
2018-12-25T07:42:35.801Z,2.70
2018-12-25T07:43:35.793Z,6.50
2018-12-25T07:44:35.778Z,5.00
2018-12-25T07:45:35.771Z,5.40
2018-12-25T07:46:35.757Z,4.10
2018-12-25T07:47:35.746Z,4.20
2018-12-25T07:48:35.736Z,3.70
2018-12-25T07:49:35.732Z,3.00
2018-12-25T07:50:35.717Z,4.50
2018-12-25T07:51:35.704Z,4.20
2018-12-25T07:52:35.695Z,3.00
2018-12-25T07:53:35.683Z,3.00
2018-12-25T07:54:35.675Z,4.00
2018-12-25T07:55:35.666Z,3.80
2018-12-25T07:56:35.654Z,3.00
2018-12-25T07:57:35.641Z,6.00
2018-12-25T07:58:35.630Z,4.00
2018-12-25T07:59:35.621Z,5.60
2018-12-25T08:00:35.611Z,3.70
2018-12-25T08:01:35.599Z,3.90
2018-12-25T08:02:35.593Z,3.20
2018-12-25T08:03:35.581Z,4.40
2018-12-25T08:04:35.567Z,4.70
2018-12-25T08:05:35.555Z,3.10
2018-12-25T08:06:35.546Z,3.80
2018-12-25T08:07:35.534Z,3.50
2018-12-25T08:08:35.524Z,6.40
2018-12-25T08:09:35.522Z,6.00
2018-12-25T08:10:35.504Z,8.90
2018-12-25T08:11:35.493Z,4.80
2018-12-25T08:12:35.483Z,5.60
2018-12-25T08:13:35.471Z,3.80
2018-12-25T08:14:35.459Z,2.90
2018-12-25T08:15:35.458Z,5.30
2018-12-25T08:16:35.439Z,3.40
2018-12-25T08:17:35.431Z,3.10
2018-12-25T08:18:35.420Z,5.20
2018-12-25T08:19:35.407Z,10.10
2018-12-25T08:20:35.402Z,8.80
2018-12-25T08:21:35.407Z,3.90
2018-12-25T08:22:35.382Z,2.00
2018-12-25T08:23:35.375Z,6.90
2018-12-25T08:24:35.361Z,5.50
2018-12-25T08:25:35.348Z,6.20
2018-12-25T08:26:35.347Z,5.00
2018-12-25T08:27:35.331Z,7.00
2018-12-25T08:28:35.313Z,3.60
2018-12-25T08:29:35.304Z,8.70
2018-12-25T08:30:35.295Z,6.00
2018-12-25T08:31:35.290Z,3.60
2018-12-25T08:32:35.276Z,5.00
2018-12-25T08:33:35.265Z,3.70
2018-12-25T08:34:35.253Z,4.60
2018-12-25T08:35:35.237Z,5.10
2018-12-25T08:36:36.493Z,4.80
2018-12-25T08:37:35.221Z,4.70
2018-12-25T08:38:35.223Z,3.70
2018-12-25T08:39:35.202Z,6.00
2018-12-25T08:40:35.191Z,4.00
2018-12-25T08:41:35.179Z,7.60
2018-12-25T08:42:35.171Z,5.10
2018-12-25T08:43:35.158Z,4.60
2018-12-25T08:44:35.150Z,4.70
2018-12-25T08:45:35.189Z,3.00
2018-12-25T08:46:35.128Z,3.70
2018-12-25T08:47:35.117Z,3.00
2018-12-25T08:48:35.113Z,3.50
2018-12-25T08:49:35.095Z,3.60
2018-12-25T08:50:35.089Z,4.20
2018-12-25T08:51:37.761Z,4.20
2018-12-25T08:52:35.065Z,5.20
2018-12-25T08:53:35.050Z,5.50
2018-12-25T08:54:35.042Z,2.90
2018-12-25T08:55:35.027Z,4.00
2018-12-25T08:56:35.017Z,4.00
2018-12-25T08:57:35.005Z,4.30
2018-12-25T08:58:35.000Z,3.60
2018-12-25T08:59:34.987Z,3.00
2018-12-25T09:00:34.974Z,3.70
2018-12-25T09:01:34.970Z,4.40
2018-12-25T09:02:34.952Z,5.10
2018-12-25T09:03:34.941Z,4.60
2018-12-25T09:04:34.934Z,3.60
2018-12-25T09:05:34.923Z,3.50
2018-12-25T09:06:34.910Z,4.50
2018-12-25T09:07:34.901Z,5.10
2018-12-25T09:08:35.249Z,3.60
2018-12-25T09:09:34.878Z,3.00
2018-12-25T09:10:34.867Z,3.30
2018-12-25T09:11:34.856Z,3.50
2018-12-25T09:12:34.845Z,4.00
2018-12-25T09:13:34.839Z,3.70
2018-12-25T09:14:34.823Z,3.10
2018-12-25T09:15:34.814Z,3.30
2018-12-25T09:16:34.802Z,3.60
2018-12-25T09:17:34.794Z,3.30
2018-12-25T09:18:34.784Z,4.00
2018-12-25T09:19:34.773Z,4.00
2018-12-25T09:20:34.762Z,3.60
2018-12-25T09:21:34.751Z,3.70
2018-12-25T09:22:34.738Z,2.90
2018-12-25T09:23:34.731Z,4.30
2018-12-25T09:24:34.718Z,3.60
2018-12-25T09:25:34.705Z,3.50
2018-12-25T09:26:34.702Z,3.70
2018-12-25T09:27:34.685Z,5.30
2018-12-25T09:28:34.680Z,2.80
2018-12-25T09:29:34.668Z,3.40
2018-12-25T09:30:34.661Z,2.30
2018-12-25T09:31:34.649Z,2.40
2018-12-25T09:32:34.632Z,3.40
2018-12-25T09:33:34.625Z,3.60
2018-12-25T09:34:34.614Z,3.30
2018-12-25T09:35:34.601Z,4.10
2018-12-25T09:36:34.594Z,3.00
2018-12-25T09:37:34.584Z,3.60
2018-12-25T09:38:34.574Z,3.70
2018-12-25T09:39:34.565Z,2.50
2018-12-25T09:40:34.551Z,3.10
2018-12-25T09:41:34.539Z,3.20
2018-12-25T09:42:34.532Z,2.60
2018-12-25T09:43:34.519Z,3.50
2018-12-25T09:44:34.510Z,2.70
2018-12-25T09:45:34.491Z,4.00
2018-12-25T09:46:34.481Z,2.00
2018-12-25T09:47:34.471Z,8.00
2018-12-25T09:48:34.459Z,2.10
2018-12-25T09:49:34.453Z,2.60
2018-12-25T09:50:34.438Z,3.30
2018-12-25T09:51:34.442Z,4.10
2018-12-25T09:52:34.473Z,3.20
2018-12-25T09:53:34.409Z,3.50
2018-12-25T09:54:34.460Z,5.30
2018-12-25T09:55:34.385Z,2.00
2018-12-25T09:56:34.380Z,3.40
2018-12-25T09:57:34.369Z,5.20
2018-12-25T09:58:34.359Z,3.30
2018-12-25T09:59:34.347Z,2.70
2018-12-25T10:00:34.344Z,2.50
2018-12-25T10:01:34.327Z,2.20
2018-12-25T10:02:34.320Z,3.60
2018-12-25T10:03:34.305Z,2.30
2018-12-25T10:04:34.301Z,4.50
2018-12-25T10:05:34.283Z,4.10
2018-12-25T10:06:34.269Z,3.80
2018-12-25T10:07:34.259Z,2.80
2018-12-25T10:08:34.247Z,5.10
2018-12-25T10:09:34.236Z,1.90
2018-12-25T10:10:34.226Z,2.90
2018-12-25T10:11:34.215Z,2.60
2018-12-25T10:12:34.202Z,3.20
2018-12-25T10:13:34.192Z,3.80
2018-12-25T10:14:34.266Z,2.00
2018-12-25T10:15:34.171Z,3.60
2018-12-25T10:16:34.163Z,4.20
2018-12-25T10:17:34.157Z,3.60
2018-12-25T10:18:34.140Z,3.30
2018-12-25T10:19:34.130Z,2.70
2018-12-25T10:20:34.118Z,2.60
2018-12-25T10:21:34.109Z,2.70
2018-12-25T10:22:34.097Z,4.40
2018-12-25T10:23:34.085Z,2.90
2018-12-25T10:24:34.074Z,2.30
2018-12-25T10:25:34.072Z,1.90
2018-12-25T10:26:34.072Z,4.00
2018-12-25T10:27:34.045Z,3.10
2018-12-25T10:28:34.039Z,3.80
2018-12-25T10:29:34.024Z,3.10
2018-12-25T10:30:34.014Z,2.90
2018-12-25T10:31:34.007Z,2.70
2018-12-25T10:32:33.988Z,3.90
2018-12-25T10:33:33.988Z,3.10
2018-12-25T10:34:33.969Z,3.70
2018-12-25T10:35:33.957Z,3.00
2018-12-25T10:36:33.946Z,2.80
2018-12-25T10:37:33.933Z,4.80
2018-12-25T10:38:33.927Z,3.10
2018-12-25T10:39:33.921Z,3.40
2018-12-25T10:40:33.905Z,2.60
2018-12-25T10:41:33.905Z,4.30
2018-12-25T10:42:33.890Z,4.80
2018-12-25T10:43:34.921Z,2.60
2018-12-25T10:44:33.867Z,3.20
2018-12-25T10:45:33.850Z,4.00
2018-12-25T10:46:33.840Z,2.30
2018-12-25T10:47:33.830Z,2.80
2018-12-25T10:48:33.849Z,4.50
2018-12-25T10:49:33.814Z,4.90
2018-12-25T10:50:33.800Z,2.20
2018-12-25T10:51:33.787Z,3.60
2018-12-25T10:52:33.778Z,3.00
2018-12-25T10:53:33.767Z,3.00
2018-12-25T10:54:33.757Z,3.50
2018-12-25T10:55:33.748Z,5.70
2018-12-25T10:56:33.734Z,6.10
2018-12-25T10:57:33.724Z,3.50
2018-12-25T10:58:33.713Z,2.10
2018-12-25T10:59:33.703Z,4.00
2018-12-25T11:00:33.688Z,4.10
2018-12-25T11:01:33.687Z,2.60
2018-12-25T11:02:33.672Z,2.20
2018-12-25T11:03:33.662Z,3.90
2018-12-25T11:04:33.652Z,2.50
2018-12-25T11:05:33.639Z,3.10
2018-12-25T11:06:33.632Z,2.40
2018-12-25T11:07:33.618Z,1.80
2018-12-25T11:08:33.606Z,2.40
2018-12-25T11:09:33.611Z,6.50
2018-12-25T11:10:33.587Z,2.80
2018-12-25T11:11:33.639Z,4.00
2018-12-25T11:12:33.563Z,4.00
2018-12-25T11:13:33.550Z,3.30
2018-12-25T11:14:33.539Z,4.00
2018-12-25T11:15:33.528Z,2.80
2018-12-25T11:16:33.523Z,6.10
2018-12-25T11:17:33.529Z,2.70
2018-12-25T11:18:33.496Z,2.10
2018-12-25T11:19:33.484Z,2.70
2018-12-25T11:20:33.475Z,3.80
2018-12-25T11:21:33.464Z,3.00
2018-12-25T11:22:33.454Z,6.70
2018-12-25T11:23:33.447Z,2.50
2018-12-25T11:24:33.432Z,2.70
2018-12-25T11:25:33.421Z,5.00
2018-12-25T11:26:33.411Z,4.70
2018-12-25T11:27:33.408Z,4.20
2018-12-25T11:28:33.389Z,4.60
2018-12-25T11:29:33.387Z,3.90
2018-12-25T11:30:33.369Z,2.30
2018-12-25T11:31:33.361Z,3.50
2018-12-25T11:32:33.349Z,3.50
2018-12-25T11:33:33.338Z,2.90
2018-12-25T11:34:33.340Z,2.90
2018-12-25T11:35:33.318Z,3.30
2018-12-25T11:36:33.323Z,2.60
2018-12-25T11:37:33.303Z,2.80
2018-12-25T11:38:33.294Z,1.90
2018-12-25T11:39:33.315Z,1.70
2018-12-25T11:40:33.269Z,2.30
2018-12-25T11:41:33.256Z,2.40
2018-12-25T11:42:33.243Z,2.00
2018-12-25T11:43:33.234Z,2.90
2018-12-25T11:44:33.303Z,2.30
2018-12-25T11:45:33.216Z,2.10
2018-12-25T11:46:33.209Z,2.30
2018-12-25T11:47:33.199Z,3.60
2018-12-25T11:48:33.218Z,4.00
2018-12-25T11:49:33.175Z,3.20
2018-12-25T11:50:33.165Z,2.70
2018-12-25T11:51:33.148Z,2.50
2018-12-25T11:52:33.139Z,3.10
2018-12-25T11:53:33.128Z,2.30
2018-12-25T11:54:33.121Z,2.20
2018-12-25T11:55:33.107Z,6.00
2018-12-25T11:56:33.090Z,4.00
2018-12-25T11:57:33.079Z,3.40
2018-12-25T11:58:33.068Z,4.20
2018-12-25T11:59:33.069Z,2.80
2018-12-25T12:00:33.047Z,3.20
2018-12-25T12:01:33.040Z,1.50
2018-12-25T12:02:33.028Z,2.60
2018-12-25T12:03:33.014Z,2.40
2018-12-25T12:04:33.005Z,4.20
2018-12-25T12:05:32.995Z,2.00
2018-12-25T12:06:32.987Z,3.30
2018-12-25T12:07:32.975Z,3.00
2018-12-25T12:08:32.979Z,3.30
2018-12-25T12:09:32.957Z,2.10
2018-12-25T12:10:32.943Z,2.70
2018-12-25T12:11:32.932Z,2.80
2018-12-25T12:12:32.922Z,3.10
2018-12-25T12:13:32.911Z,2.90
2018-12-25T12:14:32.902Z,2.40
2018-12-25T12:15:32.891Z,2.40
2018-12-25T12:16:32.880Z,1.40
2018-12-25T12:17:32.865Z,1.90
2018-12-25T12:18:32.858Z,3.60
2018-12-25T12:19:32.853Z,2.90
2018-12-25T12:20:32.839Z,3.10
2018-12-25T12:21:32.827Z,3.10
2018-12-25T12:22:36.928Z,2.70
2018-12-25T12:23:32.810Z,2.30
2018-12-25T12:24:32.794Z,2.70
2018-12-25T12:25:32.784Z,2.90
2018-12-25T12:26:32.773Z,3.60
2018-12-25T12:27:32.761Z,2.20
2018-12-25T12:28:32.749Z,2.90
2018-12-25T12:29:32.746Z,3.60
2018-12-25T12:30:32.734Z,3.20
2018-12-25T12:31:32.715Z,2.10
2018-12-25T12:32:32.704Z,2.90
2018-12-25T12:33:32.696Z,3.40
2018-12-25T12:34:32.684Z,3.50
2018-12-25T12:35:32.675Z,2.80
2018-12-25T12:36:32.700Z,3.90
2018-12-25T12:37:32.652Z,2.80
2018-12-25T12:38:32.641Z,3.10
2018-12-25T12:39:32.633Z,3.70
2018-12-25T12:40:32.620Z,3.20
2018-12-25T12:41:32.607Z,2.80
2018-12-25T12:42:32.600Z,3.40
2018-12-25T12:43:32.589Z,3.80
2018-12-25T12:44:32.577Z,5.80
2018-12-25T12:45:32.566Z,4.20
2018-12-25T12:46:32.554Z,4.00
2018-12-25T12:47:32.548Z,3.40
2018-12-25T12:48:32.532Z,2.30
2018-12-25T12:49:32.525Z,3.00
2018-12-25T12:50:32.512Z,3.40
2018-12-25T12:51:32.501Z,4.20
2018-12-25T12:52:32.494Z,3.60
2018-12-25T12:53:32.480Z,4.40
2018-12-25T12:54:32.471Z,1.90
2018-12-25T12:55:32.459Z,3.60
2018-12-25T12:56:32.447Z,3.70
2018-12-25T12:57:32.440Z,2.60
2018-12-25T12:58:32.427Z,3.20
2018-12-25T12:59:32.416Z,3.20
2018-12-25T13:00:32.404Z,3.90
2018-12-25T13:01:32.396Z,4.10
2018-12-25T13:02:32.388Z,4.10
2018-12-25T13:03:32.372Z,4.70
2018-12-25T13:04:32.363Z,3.70
2018-12-25T13:05:32.354Z,3.80
2018-12-25T13:06:32.340Z,3.20
2018-12-25T13:07:32.331Z,2.10
2018-12-25T13:08:32.319Z,3.90
2018-12-25T13:09:32.310Z,3.70
2018-12-25T13:10:32.303Z,2.50
2018-12-25T13:11:32.290Z,4.30
2018-12-25T13:12:32.283Z,2.40
2018-12-25T13:13:32.268Z,5.30
2018-12-25T13:14:32.257Z,1.40
2018-12-25T13:15:32.244Z,4.50